Airfield :
LOGIN :

Register | Disclaimer

   EN    FR    IT 

 










Legend :    VFR   Marginal VFR   IFR   Intensive IFR   Very Intensive IFR
Visi :
Ceiling :
>= 8 km
>= 3000ft
5 to 8 km
1000 to 3000 ft
1500m to 5 km
500 to 1000 ft
800 to 1500m
200 to 500 ft
< 800m
< 200 ft
Symbols :   Thunderstorms  Fog  Heavy snow  Heavy precipitations  Wind > 20 kt
SIGMETs :     Misc.  Thunderstorms  Icing  Turbulence  Mountain Waves  Volcanic Ashes







- Airport Elevation : 637 ft
- IATA code : MVQ


UMOO - Mogilev

CURRENT METAR :
  • 171200Z 21003MPS CAVOK 20/08 Q1025 R13/CLRD// NOSIG

EXPIRED METARs :
  • 171100Z 20003MPS CAVOK 20/08 Q1026 R13/CLRD// NOSIG
  • 171000Z 20003MPS CAVOK 19/09 Q1026 R13/CLRD// NOSIG
  • 170900Z 17003MPS CAVOK 14/10 Q1026 R13/CLRD// NOSIG

TAF TAF UMOO
Valid from the 17 at 12:00 until the 17 at 21:00 UTC


171100Z 1712/1721 VRB02MPS 9999 SCT025
TEMPO 1712/1718 20005MPS
TEMPO 1718/1721 2000 BR SCT005
No reported NOTAMs for that airfield.



MET'MAP, your aeronautical weather chart ! - Copyright ORBIFLY December 2007 - Disclaimer

ORBIFLY MET'MAP TEAM :

Programming & Development : Alexandra Zaïnal
Concept & Development : Baudouin d'Aumeries
Co-Development & Prog : Marc-Olivier Méhu
Technical & hardware support : Manuel Goepfert

Contact : metmap@orbifly.com




SOURCES & CREDITS :

   NOAA